sensor_id;sensor_type;location;lat;lon;timestamp;temperature;humidity
52615;DHT22;38508;53.158;6.614;2023-04-24T00:01:13;13.90;99.90
52615;DHT22;38508;53.158;6.614;2023-04-24T00:03:40;13.90;99.90
52615;DHT22;38508;53.158;6.614;2023-04-24T00:06:06;14.00;99.90
52615;DHT22;38508;53.158;6.614;2023-04-24T00:08:34;14.10;99.90
52615;DHT22;38508;53.158;6.614;2023-04-24T00:11:00;14.10;99.90
52615;DHT22;38508;53.158;6.614;2023-04-24T00:13:26;14.20;99.90
52615;DHT22;38508;53.158;6.614;2023-04-24T00:15:56;14.20;99.90
52615;DHT22;38508;53.158;6.614;2023-04-24T00:18:22;14.00;99.90
52615;DHT22;38508;53.158;6.614;2023-04-24T00:20:48;13.80;99.90
52615;DHT22;38508;53.158;6.614;2023-04-24T00:23:13;13.30;99.90
52615;DHT22;38508;53.158;6.614;2023-04-24T00:25:39;13.10;99.90
52615;DHT22;38508;53.158;6.614;2023-04-24T00:28:05;13.10;99.90
52615;DHT22;38508;53.158;6.614;2023-04-24T00:30:31;12.90;99.90
52615;DHT22;38508;53.158;6.614;2023-04-24T00:32:57;12.90;99.90
52615;DHT22;38508;53.158;6.614;2023-04-24T00:35:23;12.80;99.90
52615;DHT22;38508;53.158;6.614;2023-04-24T00:37:49;12.90;99.90
52615;DHT22;38508;53.158;6.614;2023-04-24T00:40:15;12.90;99.90
52615;DHT22;38508;53.158;6.614;2023-04-24T00:42:41;12.80;99.90
52615;DHT22;38508;53.158;6.614;2023-04-24T00:45:07;12.40;99.90
52615;DHT22;38508;53.158;6.614;2023-04-24T00:47:33;12.20;99.90
52615;DHT22;38508;53.158;6.614;2023-04-24T00:50:02;12.00;99.90
52615;DHT22;38508;53.158;6.614;2023-04-24T00:52:28;12.00;99.90
52615;DHT22;38508;53.158;6.614;2023-04-24T00:54:56;12.00;99.90
52615;DHT22;38508;53.158;6.614;2023-04-24T00:57:22;12.20;99.90
52615;DHT22;38508;53.158;6.614;2023-04-24T00:59:49;12.30;99.90
52615;DHT22;38508;53.158;6.614;2023-04-24T01:02:15;12.20;99.90
52615;DHT22;38508;53.158;6.614;2023-04-24T01:04:41;12.30;99.90
52615;DHT22;38508;53.158;6.614;2023-04-24T01:07:07;12.40;99.90
52615;DHT22;38508;53.158;6.614;2023-04-24T01:09:37;12.30;99.90
52615;DHT22;38508;53.158;6.614;2023-04-24T01:12:05;12.30;99.90
52615;DHT22;38508;53.158;6.614;2023-04-24T01:14:31;12.30;99.90
52615;DHT22;38508;53.158;6.614;2023-04-24T01:16:56;12.50;99.90
52615;DHT22;38508;53.158;6.614;2023-04-24T01:19:23;12.60;99.90
52615;DHT22;38508;53.158;6.614;2023-04-24T01:21:50;12.60;99.90
52615;DHT22;38508;53.158;6.614;2023-04-24T01:24:19;12.50;99.90
52615;DHT22;38508;53.158;6.614;2023-04-24T01:26:46;12.40;99.90
52615;DHT22;38508;53.158;6.614;2023-04-24T01:29:11;12.40;99.90
52615;DHT22;38508;53.158;6.614;2023-04-24T01:31:38;12.60;99.90
52615;DHT22;38508;53.158;6.614;2023-04-24T01:34:05;12.60;99.90
52615;DHT22;38508;53.158;6.614;2023-04-24T01:36:31;12.80;99.90
52615;DHT22;38508;53.158;6.614;2023-04-24T01:38:58;12.80;99.90
52615;DHT22;38508;53.158;6.614;2023-04-24T01:41:25;12.70;99.90
52615;DHT22;38508;53.158;6.614;2023-04-24T01:43:50;12.70;99.90
52615;DHT22;38508;53.158;6.614;2023-04-24T01:46:16;12.80;99.90
52615;DHT22;38508;53.158;6.614;2023-04-24T01:48:42;12.90;99.90
52615;DHT22;38508;53.158;6.614;2023-04-24T01:51:09;12.80;99.90
52615;DHT22;38508;53.158;6.614;2023-04-24T01:53:35;12.90;99.90
52615;DHT22;38508;53.158;6.614;2023-04-24T01:56:01;13.00;99.90
52615;DHT22;38508;53.158;6.614;2023-04-24T01:58:28;13.00;99.90
52615;DHT22;38508;53.158;6.614;2023-04-24T02:00:56;12.80;99.90
52615;DHT22;38508;53.158;6.614;2023-04-24T02:03:22;12.80;99.90
52615;DHT22;38508;53.158;6.614;2023-04-24T02:05:48;12.90;99.90
52615;DHT22;38508;53.158;6.614;2023-04-24T02:08:13;12.70;99.90
52615;DHT22;38508;53.158;6.614;2023-04-24T02:10:39;12.50;99.90
52615;DHT22;38508;53.158;6.614;2023-04-24T02:13:04;12.60;99.90
52615;DHT22;38508;53.158;6.614;2023-04-24T02:15:30;12.60;99.90
52615;DHT22;38508;53.158;6.614;2023-04-24T02:17:57;12.70;99.90
52615;DHT22;38508;53.158;6.614;2023-04-24T02:20:23;12.50;99.90
52615;DHT22;38508;53.158;6.614;2023-04-24T02:22:48;12.60;99.90
52615;DHT22;38508;53.158;6.614;2023-04-24T02:25:14;12.60;99.90
52615;DHT22;38508;53.158;6.614;2023-04-24T02:27:40;12.60;99.90
52615;DHT22;38508;53.158;6.614;2023-04-24T02:30:06;12.40;99.90
52615;DHT22;38508;53.158;6.614;2023-04-24T02:32:32;12.30;99.90
52615;DHT22;38508;53.158;6.614;2023-04-24T02:34:59;12.30;99.90
52615;DHT22;38508;53.158;6.614;2023-04-24T02:37:25;12.40;99.90
52615;DHT22;38508;53.158;6.614;2023-04-24T02:39:50;12.40;99.90
52615;DHT22;38508;53.158;6.614;2023-04-24T02:42:16;12.30;99.90
52615;DHT22;38508;53.158;6.614;2023-04-24T02:44:41;12.30;99.90
52615;DHT22;38508;53.158;6.614;2023-04-24T02:47:07;12.50;99.90
52615;DHT22;38508;53.158;6.614;2023-04-24T02:49:34;12.60;99.90
52615;DHT22;38508;53.158;6.614;2023-04-24T02:51:59;12.60;99.90
52615;DHT22;38508;53.158;6.614;2023-04-24T02:54:25;12.50;99.90
52615;DHT22;38508;53.158;6.614;2023-04-24T02:56:51;12.50;99.90
52615;DHT22;38508;53.158;6.614;2023-04-24T02:59:16;12.50;99.90
52615;DHT22;38508;53.158;6.614;2023-04-24T03:01:42;12.50;99.90
52615;DHT22;38508;53.158;6.614;2023-04-24T03:04:08;12.60;99.90
52615;DHT22;38508;53.158;6.614;2023-04-24T03:06:33;12.50;99.90
52615;DHT22;38508;53.158;6.614;2023-04-24T03:09:01;12.40;99.90
52615;DHT22;38508;53.158;6.614;2023-04-24T03:11:26;12.30;99.90
52615;DHT22;38508;53.158;6.614;2023-04-24T03:13:52;12.30;99.90
52615;DHT22;38508;53.158;6.614;2023-04-24T03:16:18;12.50;99.90
52615;DHT22;38508;53.158;6.614;2023-04-24T03:18:43;12.60;99.90
52615;DHT22;38508;53.158;6.614;2023-04-24T03:21:09;12.50;99.90
52615;DHT22;38508;53.158;6.614;2023-04-24T03:23:35;12.60;99.90
52615;DHT22;38508;53.158;6.614;2023-04-24T03:26:00;12.60;99.90
52615;DHT22;38508;53.158;6.614;2023-04-24T03:28:27;12.50;99.90
52615;DHT22;38508;53.158;6.614;2023-04-24T03:30:53;12.50;99.90
52615;DHT22;38508;53.158;6.614;2023-04-24T03:33:18;12.50;99.90
52615;DHT22;38508;53.158;6.614;2023-04-24T03:35:44;12.40;99.90
52615;DHT22;38508;53.158;6.614;2023-04-24T03:38:10;12.30;99.90
52615;DHT22;38508;53.158;6.614;2023-04-24T03:40:36;12.30;99.90
52615;DHT22;38508;53.158;6.614;2023-04-24T03:43:01;12.20;99.90
52615;DHT22;38508;53.158;6.614;2023-04-24T03:45:27;12.40;99.90
52615;DHT22;38508;53.158;6.614;2023-04-24T03:47:53;12.40;99.90
52615;DHT22;38508;53.158;6.614;2023-04-24T03:50:19;12.30;99.90
52615;DHT22;38508;53.158;6.614;2023-04-24T03:52:44;12.40;99.90
52615;DHT22;38508;53.158;6.614;2023-04-24T03:55:10;12.50;99.90
52615;DHT22;38508;53.158;6.614;2023-04-24T03:57:39;12.50;99.90
52615;DHT22;38508;53.158;6.614;2023-04-24T04:00:05;12.40;99.90
52615;DHT22;38508;53.158;6.614;2023-04-24T04:02:31;12.50;99.90
52615;DHT22;38508;53.158;6.614;2023-04-24T04:04:57;12.50;99.90
52615;DHT22;38508;53.158;6.614;2023-04-24T04:07:22;12.50;99.90
52615;DHT22;38508;53.158;6.614;2023-04-24T04:09:48;12.40;99.90
52615;DHT22;38508;53.158;6.614;2023-04-24T04:12:14;12.50;99.90
52615;DHT22;38508;53.158;6.614;2023-04-24T04:14:39;12.50;99.90
52615;DHT22;38508;53.158;6.614;2023-04-24T04:17:05;12.50;99.90
52615;DHT22;38508;53.158;6.614;2023-04-24T04:19:31;12.50;99.90
52615;DHT22;38508;53.158;6.614;2023-04-24T04:21:56;12.50;99.90
52615;DHT22;38508;53.158;6.614;2023-04-24T04:24:22;12.50;99.90
52615;DHT22;38508;53.158;6.614;2023-04-24T04:26:49;12.20;99.90
52615;DHT22;38508;53.158;6.614;2023-04-24T04:29:17;12.20;99.90
52615;DHT22;38508;53.158;6.614;2023-04-24T04:31:44;12.20;99.90
52615;DHT22;38508;53.158;6.614;2023-04-24T04:34:10;12.30;99.90
52615;DHT22;38508;53.158;6.614;2023-04-24T04:36:36;12.10;99.90
52615;DHT22;38508;53.158;6.614;2023-04-24T04:39:06;12.10;99.90
52615;DHT22;38508;53.158;6.614;2023-04-24T04:41:32;11.90;99.90
52615;DHT22;38508;53.158;6.614;2023-04-24T04:44:00;12.00;99.90
52615;DHT22;38508;53.158;6.614;2023-04-24T04:46:27;12.00;99.90
52615;DHT22;38508;53.158;6.614;2023-04-24T04:48:53;11.90;99.90
52615;DHT22;38508;53.158;6.614;2023-04-24T04:51:19;12.00;99.90
52615;DHT22;38508;53.158;6.614;2023-04-24T04:53:45;12.00;99.90
52615;DHT22;38508;53.158;6.614;2023-04-24T04:56:11;12.00;99.90
52615;DHT22;38508;53.158;6.614;2023-04-24T04:58:36;12.00;99.90
52615;DHT22;38508;53.158;6.614;2023-04-24T05:01:02;12.00;99.90
52615;DHT22;38508;53.158;6.614;2023-04-24T05:03:28;12.20;99.90
52615;DHT22;38508;53.158;6.614;2023-04-24T05:05:53;12.10;99.90
52615;DHT22;38508;53.158;6.614;2023-04-24T05:08:19;12.20;99.90
52615;DHT22;38508;53.158;6.614;2023-04-24T05:10:45;12.20;99.90
52615;DHT22;38508;53.158;6.614;2023-04-24T05:13:10;12.10;99.90
52615;DHT22;38508;53.158;6.614;2023-04-24T05:15:36;12.00;99.90
52615;DHT22;38508;53.158;6.614;2023-04-24T05:18:02;11.90;99.90
52615;DHT22;38508;53.158;6.614;2023-04-24T05:20:28;11.90;99.90
52615;DHT22;38508;53.158;6.614;2023-04-24T05:22:54;12.00;99.90
52615;DHT22;38508;53.158;6.614;2023-04-24T05:25:19;12.10;99.90
52615;DHT22;38508;53.158;6.614;2023-04-24T05:27:45;12.20;99.90
52615;DHT22;38508;53.158;6.614;2023-04-24T05:30:12;12.20;99.90
52615;DHT22;38508;53.158;6.614;2023-04-24T05:32:38;12.20;99.90
52615;DHT22;38508;53.158;6.614;2023-04-24T05:35:04;12.40;99.90
52615;DHT22;38508;53.158;6.614;2023-04-24T05:37:29;12.60;99.90
52615;DHT22;38508;53.158;6.614;2023-04-24T05:39:55;12.50;99.90
52615;DHT22;38508;53.158;6.614;2023-04-24T05:42:21;12.70;99.90
52615;DHT22;38508;53.158;6.614;2023-04-24T05:44:46;12.80;99.90
52615;DHT22;38508;53.158;6.614;2023-04-24T05:47:12;12.90;99.90
52615;DHT22;38508;53.158;6.614;2023-04-24T05:49:38;13.00;99.90
52615;DHT22;38508;53.158;6.614;2023-04-24T05:52:03;13.10;99.90
52615;DHT22;38508;53.158;6.614;2023-04-24T05:54:30;13.20;99.90
52615;DHT22;38508;53.158;6.614;2023-04-24T05:56:56;13.20;99.90
52615;DHT22;38508;53.158;6.614;2023-04-24T05:59:22;13.00;99.90
52615;DHT22;38508;53.158;6.614;2023-04-24T06:01:48;13.00;99.90
52615;DHT22;38508;53.158;6.614;2023-04-24T06:04:13;12.90;99.90
52615;DHT22;38508;53.158;6.614;2023-04-24T06:06:39;12.90;99.90
52615;DHT22;38508;53.158;6.614;2023-04-24T06:09:05;12.70;99.90
52615;DHT22;38508;53.158;6.614;2023-04-24T06:11:32;12.50;99.90
52615;DHT22;38508;53.158;6.614;2023-04-24T06:13:57;12.40;99.90
52615;DHT22;38508;53.158;6.614;2023-04-24T06:16:23;12.40;99.90
52615;DHT22;38508;53.158;6.614;2023-04-24T06:18:49;12.30;99.90
52615;DHT22;38508;53.158;6.614;2023-04-24T06:21:16;12.10;99.90
52615;DHT22;38508;53.158;6.614;2023-04-24T06:23:42;12.00;99.90
52615;DHT22;38508;53.158;6.614;2023-04-24T06:26:07;12.00;99.90
52615;DHT22;38508;53.158;6.614;2023-04-24T06:28:33;12.20;99.90
52615;DHT22;38508;53.158;6.614;2023-04-24T06:30:59;12.30;99.90
52615;DHT22;38508;53.158;6.614;2023-04-24T06:33:24;12.40;99.90
52615;DHT22;38508;53.158;6.614;2023-04-24T06:35:50;12.50;99.90
52615;DHT22;38508;53.158;6.614;2023-04-24T06:38:16;12.60;99.90
52615;DHT22;38508;53.158;6.614;2023-04-24T06:40:41;12.60;99.90
52615;DHT22;38508;53.158;6.614;2023-04-24T06:43:07;12.40;99.90
52615;DHT22;38508;53.158;6.614;2023-04-24T06:45:33;12.20;99.90
52615;DHT22;38508;53.158;6.614;2023-04-24T06:47:58;12.00;99.90
52615;DHT22;38508;53.158;6.614;2023-04-24T06:50:24;11.80;99.90
52615;DHT22;38508;53.158;6.614;2023-04-24T06:52:49;11.80;99.90
52615;DHT22;38508;53.158;6.614;2023-04-24T06:55:15;11.80;99.90
52615;DHT22;38508;53.158;6.614;2023-04-24T06:57:42;11.80;99.90
52615;DHT22;38508;53.158;6.614;2023-04-24T07:00:08;11.90;99.90
52615;DHT22;38508;53.158;6.614;2023-04-24T07:02:34;11.90;99.90
52615;DHT22;38508;53.158;6.614;2023-04-24T07:05:00;11.80;99.90
52615;DHT22;38508;53.158;6.614;2023-04-24T07:07:26;12.00;99.90
52615;DHT22;38508;53.158;6.614;2023-04-24T07:09:53;11.90;99.90
52615;DHT22;38508;53.158;6.614;2023-04-24T07:12:19;11.90;99.90
52615;DHT22;38508;53.158;6.614;2023-04-24T07:14:47;11.80;99.90
52615;DHT22;38508;53.158;6.614;2023-04-24T07:17:13;11.90;99.90
52615;DHT22;38508;53.158;6.614;2023-04-24T07:19:40;11.90;99.90
52615;DHT22;38508;53.158;6.614;2023-04-24T07:22:05;12.00;99.90
52615;DHT22;38508;53.158;6.614;2023-04-24T07:24:31;11.90;99.90
52615;DHT22;38508;53.158;6.614;2023-04-24T07:26:58;11.90;99.90
52615;DHT22;38508;53.158;6.614;2023-04-24T07:29:24;12.10;99.90
52615;DHT22;38508;53.158;6.614;2023-04-24T07:31:50;12.20;99.90
52615;DHT22;38508;53.158;6.614;2023-04-24T07:34:16;12.30;99.90
52615;DHT22;38508;53.158;6.614;2023-04-24T07:36:42;12.30;99.90
52615;DHT22;38508;53.158;6.614;2023-04-24T07:39:07;12.20;99.90
52615;DHT22;38508;53.158;6.614;2023-04-24T07:41:33;12.20;99.90
52615;DHT22;38508;53.158;6.614;2023-04-24T07:43:59;11.90;99.90
52615;DHT22;38508;53.158;6.614;2023-04-24T07:46:25;11.90;99.90
52615;DHT22;38508;53.158;6.614;2023-04-24T07:48:53;11.80;99.90
52615;DHT22;38508;53.158;6.614;2023-04-24T07:51:19;11.70;99.90
52615;DHT22;38508;53.158;6.614;2023-04-24T07:53:45;11.70;99.90
52615;DHT22;38508;53.158;6.614;2023-04-24T07:56:10;11.60;99.90
52615;DHT22;38508;53.158;6.614;2023-04-24T07:58:36;11.60;99.90
52615;DHT22;38508;53.158;6.614;2023-04-24T08:01:02;11.50;99.90
52615;DHT22;38508;53.158;6.614;2023-04-24T08:03:27;11.40;99.90
52615;DHT22;38508;53.158;6.614;2023-04-24T08:05:53;11.30;99.90
52615;DHT22;38508;53.158;6.614;2023-04-24T08:08:21;11.20;99.90
52615;DHT22;38508;53.158;6.614;2023-04-24T08:10:47;11.20;99.90
52615;DHT22;38508;53.158;6.614;2023-04-24T08:13:13;11.20;99.90
52615;DHT22;38508;53.158;6.614;2023-04-24T08:15:38;11.30;99.90
52615;DHT22;38508;53.158;6.614;2023-04-24T08:18:04;11.30;99.90
52615;DHT22;38508;53.158;6.614;2023-04-24T08:20:30;11.20;99.90
52615;DHT22;38508;53.158;6.614;2023-04-24T08:22:56;11.30;99.90
52615;DHT22;38508;53.158;6.614;2023-04-24T08:25:22;11.10;99.90
52615;DHT22;38508;53.158;6.614;2023-04-24T08:27:49;11.00;99.90
52615;DHT22;38508;53.158;6.614;2023-04-24T08:30:15;10.90;99.90
52615;DHT22;38508;53.158;6.614;2023-04-24T08:32:40;10.90;99.90
52615;DHT22;38508;53.158;6.614;2023-04-24T08:35:07;10.80;99.90
52615;DHT22;38508;53.158;6.614;2023-04-24T08:37:35;10.70;99.90
52615;DHT22;38508;53.158;6.614;2023-04-24T08:40:05;10.80;99.90
52615;DHT22;38508;53.158;6.614;2023-04-24T08:42:34;10.90;99.90
52615;DHT22;38508;53.158;6.614;2023-04-24T08:45:02;10.90;99.90
52615;DHT22;38508;53.158;6.614;2023-04-24T08:47:29;10.90;99.90
52615;DHT22;38508;53.158;6.614;2023-04-24T08:49:56;10.70;99.90
52615;DHT22;38508;53.158;6.614;2023-04-24T08:52:22;10.70;99.90
52615;DHT22;38508;53.158;6.614;2023-04-24T08:54:48;10.60;99.90
52615;DHT22;38508;53.158;6.614;2023-04-24T08:57:14;10.60;99.90
52615;DHT22;38508;53.158;6.614;2023-04-24T08:59:40;10.60;99.90
52615;DHT22;38508;53.158;6.614;2023-04-24T09:02:10;10.50;99.90
52615;DHT22;38508;53.158;6.614;2023-04-24T09:04:36;10.40;99.90
52615;DHT22;38508;53.158;6.614;2023-04-24T09:07:03;10.30;99.90
52615;DHT22;38508;53.158;6.614;2023-04-24T09:09:32;10.20;99.90
52615;DHT22;38508;53.158;6.614;2023-04-24T09:11:58;10.30;99.90
52615;DHT22;38508;53.158;6.614;2023-04-24T09:14:24;10.20;99.90
52615;DHT22;38508;53.158;6.614;2023-04-24T09:16:51;10.20;99.90
52615;DHT22;38508;53.158;6.614;2023-04-24T09:19:17;10.30;99.90
52615;DHT22;38508;53.158;6.614;2023-04-24T09:21:45;10.40;99.90
52615;DHT22;38508;53.158;6.614;2023-04-24T09:24:20;10.50;99.90
52615;DHT22;38508;53.158;6.614;2023-04-24T09:26:48;10.50;99.90
52615;DHT22;38508;53.158;6.614;2023-04-24T09:29:15;10.50;99.90
52615;DHT22;38508;53.158;6.614;2023-04-24T09:31:42;10.60;99.90
52615;DHT22;38508;53.158;6.614;2023-04-24T09:34:08;10.60;99.90
52615;DHT22;38508;53.158;6.614;2023-04-24T09:36:39;10.60;99.90
52615;DHT22;38508;53.158;6.614;2023-04-24T09:39:08;10.40;99.90
52615;DHT22;38508;53.158;6.614;2023-04-24T09:41:49;10.30;99.90
52615;DHT22;38508;53.158;6.614;2023-04-24T09:44:21;10.40;99.90
52615;DHT22;38508;53.158;6.614;2023-04-24T09:47:00;10.40;99.90
52615;DHT22;38508;53.158;6.614;2023-04-24T09:49:30;10.40;99.90
52615;DHT22;38508;53.158;6.614;2023-04-24T09:52:08;10.50;99.90
52615;DHT22;38508;53.158;6.614;2023-04-24T09:54:35;10.60;99.90
52615;DHT22;38508;53.158;6.614;2023-04-24T09:57:02;10.50;99.90
52615;DHT22;38508;53.158;6.614;2023-04-24T09:59:28;10.50;99.90
52615;DHT22;38508;53.158;6.614;2023-04-24T10:01:54;10.40;99.90
52615;DHT22;38508;53.158;6.614;2023-04-24T10:04:26;10.40;99.90
52615;DHT22;38508;53.158;6.614;2023-04-24T10:06:53;10.60;99.90
52615;DHT22;38508;53.158;6.614;2023-04-24T10:09:22;10.50;99.90
52615;DHT22;38508;53.158;6.614;2023-04-24T10:11:50;10.60;99.90
52615;DHT22;38508;53.158;6.614;2023-04-24T10:14:18;10.50;99.90
52615;DHT22;38508;53.158;6.614;2023-04-24T10:16:44;10.50;99.90
52615;DHT22;38508;53.158;6.614;2023-04-24T10:19:13;10.50;99.90
52615;DHT22;38508;53.158;6.614;2023-04-24T10:21:40;10.50;99.90
52615;DHT22;38508;53.158;6.614;2023-04-24T10:24:18;10.60;99.90
52615;DHT22;38508;53.158;6.614;2023-04-24T10:26:46;10.70;99.90
52615;DHT22;38508;53.158;6.614;2023-04-24T10:29:16;10.70;99.90
52615;DHT22;38508;53.158;6.614;2023-04-24T10:31:43;10.70;99.90
52615;DHT22;38508;53.158;6.614;2023-04-24T10:34:18;10.80;99.90
52615;DHT22;38508;53.158;6.614;2023-04-24T10:36:49;10.90;99.90
52615;DHT22;38508;53.158;6.614;2023-04-24T10:39:16;11.00;99.90
52615;DHT22;38508;53.158;6.614;2023-04-24T10:41:43;11.20;99.90
52615;DHT22;38508;53.158;6.614;2023-04-24T10:44:10;11.30;99.90
52615;DHT22;38508;53.158;6.614;2023-04-24T10:46:37;11.10;99.90
52615;DHT22;38508;53.158;6.614;2023-04-24T10:49:05;11.00;99.90
52615;DHT22;38508;53.158;6.614;2023-04-24T10:54:33;11.00;99.90
52615;DHT22;38508;53.158;6.614;2023-04-24T10:59:44;11.10;99.90
52615;DHT22;38508;53.158;6.614;2023-04-24T11:02:10;11.20;99.90
52615;DHT22;38508;53.158;6.614;2023-04-24T11:04:35;11.20;99.90
52615;DHT22;38508;53.158;6.614;2023-04-24T11:07:03;11.20;99.90
52615;DHT22;38508;53.158;6.614;2023-04-24T11:09:32;11.10;99.90
52615;DHT22;38508;53.158;6.614;2023-04-24T11:12:09;10.90;99.90
52615;DHT22;38508;53.158;6.614;2023-04-24T11:20:04;10.80;99.90
52615;DHT22;38508;53.158;6.614;2023-04-24T11:22:33;10.80;99.90
52615;DHT22;38508;53.158;6.614;2023-04-24T11:25:01;10.80;99.90
52615;DHT22;38508;53.158;6.614;2023-04-24T11:27:30;10.70;99.90
52615;DHT22;38508;53.158;6.614;2023-04-24T11:35:06;10.80;99.90
52615;DHT22;38508;53.158;6.614;2023-04-24T11:37:38;10.80;99.90
52615;DHT22;38508;53.158;6.614;2023-04-24T11:40:11;10.90;99.90
52615;DHT22;38508;53.158;6.614;2023-04-24T11:42:38;10.80;99.90
52615;DHT22;38508;53.158;6.614;2023-04-24T11:45:15;10.80;99.90
52615;DHT22;38508;53.158;6.614;2023-04-24T11:47:42;10.70;99.90
52615;DHT22;38508;53.158;6.614;2023-04-24T11:50:13;10.80;99.90
52615;DHT22;38508;53.158;6.614;2023-04-24T11:52:44;10.80;99.90
52615;DHT22;38508;53.158;6.614;2023-04-24T11:57:49;11.20;99.90
52615;DHT22;38508;53.158;6.614;2023-04-24T12:00:22;11.20;99.90
52615;DHT22;38508;53.158;6.614;2023-04-24T12:02:49;11.10;99.90
52615;DHT22;38508;53.158;6.614;2023-04-24T12:05:26;10.80;99.90
52615;DHT22;38508;53.158;6.614;2023-04-24T12:07:51;10.70;99.90
52615;DHT22;38508;53.158;6.614;2023-04-24T12:10:25;10.70;99.90
52615;DHT22;38508;53.158;6.614;2023-04-24T12:12:51;10.70;99.90
52615;DHT22;38508;53.158;6.614;2023-04-24T12:15:18;10.60;99.90
52615;DHT22;38508;53.158;6.614;2023-04-24T12:17:44;10.50;99.90
52615;DHT22;38508;53.158;6.614;2023-04-24T12:20:11;10.40;99.90
52615;DHT22;38508;53.158;6.614;2023-04-24T12:22:50;10.10;99.90
52615;DHT22;38508;53.158;6.614;2023-04-24T12:25:18;10.00;99.90
52615;DHT22;38508;53.158;6.614;2023-04-24T12:27:54;10.10;99.90
52615;DHT22;38508;53.158;6.614;2023-04-24T12:30:21;10.10;99.90
52615;DHT22;38508;53.158;6.614;2023-04-24T12:32:51;10.20;99.90
52615;DHT22;38508;53.158;6.614;2023-04-24T12:35:22;10.20;99.90
52615;DHT22;38508;53.158;6.614;2023-04-24T12:37:48;10.30;99.90
52615;DHT22;38508;53.158;6.614;2023-04-24T12:40:14;10.50;99.90
52615;DHT22;38508;53.158;6.614;2023-04-24T12:42:50;10.60;99.90
52615;DHT22;38508;53.158;6.614;2023-04-24T12:45:17;10.80;99.90
52615;DHT22;38508;53.158;6.614;2023-04-24T12:47:45;10.80;99.90
52615;DHT22;38508;53.158;6.614;2023-04-24T12:50:12;10.70;99.90
52615;DHT22;38508;53.158;6.614;2023-04-24T12:52:39;10.70;99.90
52615;DHT22;38508;53.158;6.614;2023-04-24T12:55:05;10.60;99.90
52615;DHT22;38508;53.158;6.614;2023-04-24T12:57:35;10.50;99.90
52615;DHT22;38508;53.158;6.614;2023-04-24T13:00:01;10.60;99.90
52615;DHT22;38508;53.158;6.614;2023-04-24T13:02:30;10.60;99.90
52615;DHT22;38508;53.158;6.614;2023-04-24T13:04:59;10.70;99.90
52615;DHT22;38508;53.158;6.614;2023-04-24T13:07:25;10.70;99.90
52615;DHT22;38508;53.158;6.614;2023-04-24T13:09:52;10.70;99.90
52615;DHT22;38508;53.158;6.614;2023-04-24T13:12:18;10.50;99.90
52615;DHT22;38508;53.158;6.614;2023-04-24T13:14:44;10.40;99.90
52615;DHT22;38508;53.158;6.614;2023-04-24T13:17:10;10.60;99.90
52615;DHT22;38508;53.158;6.614;2023-04-24T13:19:41;10.60;99.90
52615;DHT22;38508;53.158;6.614;2023-04-24T13:22:08;10.70;99.90
52615;DHT22;38508;53.158;6.614;2023-04-24T13:24:34;10.80;99.90
52615;DHT22;38508;53.158;6.614;2023-04-24T13:27:00;10.90;99.90
52615;DHT22;38508;53.158;6.614;2023-04-24T13:29:26;11.00;99.90
52615;DHT22;38508;53.158;6.614;2023-04-24T13:31:52;11.00;99.90
52615;DHT22;38508;53.158;6.614;2023-04-24T13:34:23;10.90;99.90
52615;DHT22;38508;53.158;6.614;2023-04-24T13:36:50;10.60;99.90
52615;DHT22;38508;53.158;6.614;2023-04-24T13:39:16;10.60;99.90
52615;DHT22;38508;53.158;6.614;2023-04-24T13:41:42;10.50;99.90
52615;DHT22;38508;53.158;6.614;2023-04-24T13:44:08;10.50;99.90
52615;DHT22;38508;53.158;6.614;2023-04-24T13:46:34;10.70;99.90
52615;DHT22;38508;53.158;6.614;2023-04-24T13:49:02;10.70;99.90
52615;DHT22;38508;53.158;6.614;2023-04-24T13:51:29;10.70;99.90
52615;DHT22;38508;53.158;6.614;2023-04-24T13:53:55;10.70;99.90
52615;DHT22;38508;53.158;6.614;2023-04-24T13:56:22;10.80;99.90
52615;DHT22;38508;53.158;6.614;2023-04-24T13:58:48;11.00;99.90
52615;DHT22;38508;53.158;6.614;2023-04-24T14:01:14;10.70;99.90
52615;DHT22;38508;53.158;6.614;2023-04-24T14:03:41;10.60;99.90
52615;DHT22;38508;53.158;6.614;2023-04-24T14:06:07;10.70;99.90
52615;DHT22;38508;53.158;6.614;2023-04-24T14:08:32;10.70;99.90
52615;DHT22;38508;53.158;6.614;2023-04-24T14:10:58;10.40;99.90
52615;DHT22;38508;53.158;6.614;2023-04-24T14:13:24;10.40;99.90
52615;DHT22;38508;53.158;6.614;2023-04-24T14:15:50;10.20;99.90
52615;DHT22;38508;53.158;6.614;2023-04-24T14:18:18;10.30;99.90
52615;DHT22;38508;53.158;6.614;2023-04-24T14:20:44;10.30;99.90
52615;DHT22;38508;53.158;6.614;2023-04-24T14:23:10;10.10;99.90
52615;DHT22;38508;53.158;6.614;2023-04-24T14:25:36;9.90;99.90
52615;DHT22;38508;53.158;6.614;2023-04-24T14:28:02;9.90;99.90
52615;DHT22;38508;53.158;6.614;2023-04-24T14:30:27;10.00;99.90
52615;DHT22;38508;53.158;6.614;2023-04-24T14:32:53;10.00;99.90
52615;DHT22;38508;53.158;6.614;2023-04-24T14:35:19;10.10;99.90
52615;DHT22;38508;53.158;6.614;2023-04-24T14:37:44;10.20;99.90
52615;DHT22;38508;53.158;6.614;2023-04-24T14:40:10;10.10;99.90
52615;DHT22;38508;53.158;6.614;2023-04-24T14:42:36;10.20;99.90
52615;DHT22;38508;53.158;6.614;2023-04-24T14:45:02;10.10;99.90
52615;DHT22;38508;53.158;6.614;2023-04-24T14:47:28;10.10;99.90
52615;DHT22;38508;53.158;6.614;2023-04-24T14:49:54;10.30;99.90
52615;DHT22;38508;53.158;6.614;2023-04-24T14:52:20;10.40;99.90
52615;DHT22;38508;53.158;6.614;2023-04-24T14:54:46;10.30;99.90
52615;DHT22;38508;53.158;6.614;2023-04-24T14:57:12;10.00;99.90
52615;DHT22;38508;53.158;6.614;2023-04-24T14:59:38;9.90;99.90
52615;DHT22;38508;53.158;6.614;2023-04-24T15:02:04;9.90;99.90
52615;DHT22;38508;53.158;6.614;2023-04-24T15:04:29;10.10;99.90
52615;DHT22;38508;53.158;6.614;2023-04-24T15:06:56;10.20;99.90
52615;DHT22;38508;53.158;6.614;2023-04-24T15:09:23;10.00;99.90
52615;DHT22;38508;53.158;6.614;2023-04-24T15:11:50;9.90;99.90
52615;DHT22;38508;53.158;6.614;2023-04-24T15:14:17;9.90;99.90
52615;DHT22;38508;53.158;6.614;2023-04-24T15:16:43;9.80;99.90
52615;DHT22;38508;53.158;6.614;2023-04-24T15:19:08;9.80;99.90
52615;DHT22;38508;53.158;6.614;2023-04-24T15:21:36;9.80;99.90
52615;DHT22;38508;53.158;6.614;2023-04-24T15:24:02;9.90;99.90
52615;DHT22;38508;53.158;6.614;2023-04-24T15:26:27;9.90;99.90
52615;DHT22;38508;53.158;6.614;2023-04-24T15:28:53;9.90;99.90
52615;DHT22;38508;53.158;6.614;2023-04-24T15:31:19;9.70;99.90
52615;DHT22;38508;53.158;6.614;2023-04-24T15:33:45;9.70;99.90
52615;DHT22;38508;53.158;6.614;2023-04-24T15:36:11;9.80;99.90
52615;DHT22;38508;53.158;6.614;2023-04-24T15:38:37;10.00;99.90
52615;DHT22;38508;53.158;6.614;2023-04-24T15:41:03;9.80;99.90
52615;DHT22;38508;53.158;6.614;2023-04-24T15:43:29;9.80;99.90
52615;DHT22;38508;53.158;6.614;2023-04-24T15:45:57;9.80;99.90
52615;DHT22;38508;53.158;6.614;2023-04-24T15:48:22;9.90;99.90